Overview Statistics Trail Chart Weather Telemetry Raw packets
 

This is the latest recevied weather packets stored in our database for station/object KB4RFE. If no packets are shown the sender has not sent any weather packets the latest 10 day(s).

<< 13 14 15 16 17 18 19 >>
Time Temp. Humidity Pressure Rain* Wind** Luminosity Snow
1788536513 32.22° C 69% 1020.5 hPa 0 mm - 731 W/m² -
1788536208 32.22° C 69% 1020.4 hPa 0 mm - 722 W/m² -
1788535903 31.67° C 68% 1020.4 hPa 0 mm - 714 W/m² -
1788535600 31.67° C 67% 1020.5 hPa 0 mm - 707 W/m² -
1788535296 31.67° C 68% 1020.4 hPa 0 mm - 699 W/m² -
1788534996 31.67° C 71% 1020.3 hPa 0 mm - 691 W/m² -
1788534694 31.67° C 69% 1020.3 hPa 0 mm - 681 W/m² -
1788534390 31.67° C 72% 1020.2 hPa 0 mm - 669 W/m² -
1788534086 31.67° C 69% 1020.4 hPa 0 mm - 659 W/m² -
1788533784 31.11° C 72% 1020.1 hPa 0 mm - 689 W/m² -
1788533479 31.67° C 70% 1020.2 hPa 0 mm - 144 W/m² -
1788533175 31.11° C 73% 1020.2 hPa 0 mm - 636 W/m² -
1788532871 31.67° C 71% 1020.1 hPa 0 mm - 175 W/m² -
1788532567 31.67° C 71% 1020 hPa 0 mm - 594 W/m² -
1788532263 31.11° C 71% 1020.1 hPa 0 mm - 581 W/m² -
1788531960 31.67° C 70% 1019.8 hPa 0 mm - 561 W/m² -
1788531659 31.67° C 70% 1020 hPa 0 mm - 544 W/m² -
1788531355 31.11° C 74% 1020.1 hPa 0 mm - 530 W/m² -
1788531050 31.11° C 73% 1020.1 hPa 0 mm - 519 W/m² -
1788530746 30.56° C 75% 1020.2 hPa 0 mm - 499 W/m² -
1788530440 30.56° C 77% 1020 hPa 0 mm - 494 W/m² -
1788530139 30° C 77% 1020.3 hPa 0 mm - 503 W/m² -
1788529836 30.56° C 77% 1020 hPa 0 mm - 85 W/m² -
1788529531 30° C 78% 1020 hPa 0 mm - 437 W/m² -
1788529230 30° C 76% 1019.8 hPa 0 mm - 407 W/m² -

* Rain latest hour (hover to see other rain measurements)
** Current wind speed in m/s (hover to see current wind gust speed)